Weather at Entebbe International Airport

Public forecast

Using degrees Celsius for public forecast. Weather courtesy of forecast.io.

Current aviation weather report (METAR) for Entebbe International Airport

Report is more than 6 hours old.

2022/11/14 15:00 (retrieved 2 years ago)

HUEN 141500Z 34008KT 9999 FEW022 FEW025CB 23/19 Q1015 NOSIG

Aviation forecast (TAF) for Entebbe International Airport

Forecast is more than 12 hours old.

2023/02/22 18:00 (retrieved 1 year ago)

TAF HUEN 221700Z 2218/2324 18010KT 9999 FEW023 FEW025CB TEMPO 2220/2222 27006KT BECMG 2223/2303 36005KT FEW020 FEW022CB BECMG 2304/2308 VRB15KT 8000 -TSRA SCT018 FEW020CB BKN100